Time;durP1;ratioP1;P1;durP2;ratioP2;P2;SDS_P1;SDS_P2;PMS_P1;PMS_P2;Temp;Humidity;BMP_temperature;BMP_pressure;BME280_temperature;BME280_humidity;BME280_pressure;Samples;Min_cycle;Max_cycle;Signal;HPM_P1;HPM_P2
2023/10/14 00:00:57;;;;;;;12.60;5.63;;;22.20;90.70;;;;;;4997914;28;20481;-65
2023/10/14 00:03:28;;;;;;;21.53;8.10;;;22.10;90.70;;;;;;5016160;28;20476;-66
2023/10/14 00:06:00;;;;;;;12.80;8.27;;;22.00;90.90;;;;;;4989808;28;20864;-67
2023/10/14 00:08:31;;;;;;;9.70;6.20;;;22.20;91.00;;;;;;4995852;28;21103;-67
2023/10/14 00:11:00;;;;;;;9.20;6.77;;;22.20;91.00;;;;;;5001179;28;21006;-65
2023/10/14 00:13:31;;;;;;;11.33;6.93;;;22.10;91.10;;;;;;4989783;28;20460;-65
2023/10/14 00:16:01;;;;;;;5.07;3.77;;;22.10;91.20;;;;;;4999040;28;20588;-66
2023/10/14 00:18:29;;;;;;;7.63;6.20;;;22.10;91.20;;;;;;4997819;28;20984;-65
2023/10/14 00:20:59;;;;;;;15.63;6.00;;;22.20;91.20;;;;;;4999061;28;20996;-67
2023/10/14 00:23:27;;;;;;;11.97;6.07;;;22.20;91.30;;;;;;5001645;28;20524;-66
2023/10/14 00:25:55;;;;;;;12.30;6.60;;;22.20;91.40;;;;;;5012070;28;20482;-66
2023/10/14 00:28:22;;;;;;;9.53;4.37;;;22.20;91.40;;;;;;4999112;28;20500;-67
2023/10/14 00:30:49;;;;;;;10.40;5.23;;;22.20;91.50;;;;;;4993428;28;20865;-66
2023/10/14 00:33:16;;;;;;;10.70;7.07;;;22.20;91.50;;;;;;4997452;28;20491;-66
2023/10/14 00:35:44;;;;;;;8.30;5.93;;;22.20;91.50;;;;;;4996816;28;20478;-64
2023/10/14 00:38:13;;;;;;;9.30;5.90;;;22.20;91.50;;;;;;5009709;28;20869;-65
2023/10/14 00:40:45;;;;;;;9.90;6.97;;;22.20;91.50;;;;;;4999046;28;20500;-67
2023/10/14 00:43:12;;;;;;;22.13;6.80;;;22.30;91.60;;;;;;4997265;28;20554;-66
2023/10/14 00:45:43;;;;;;;5.03;4.53;;;22.20;91.60;;;;;;4998535;28;20518;-66
2023/10/14 00:48:19;;;;;;;13.50;7.70;;;22.20;91.70;;;;;;4999661;28;21031;-64
2023/10/14 00:50:50;;;;;;;17.70;8.10;;;22.20;91.70;;;;;;4994549;28;20495;-66
2023/10/14 00:53:18;;;;;;;14.20;8.30;;;22.20;91.60;;;;;;5020773;28;20888;-66
2023/10/14 00:55:54;;;;;;;9.80;6.80;;;22.10;91.60;;;;;;4999570;28;20481;-67
2023/10/14 00:58:23;;;;;;;8.93;6.27;;;22.10;91.50;;;;;;4995785;28;20838;-63
2023/10/14 01:01:00;;;;;;;9.93;5.57;;;21.90;91.30;;;;;;4997619;28;20468;-60
2023/10/14 01:03:30;;;;;;;10.97;6.70;;;22.00;91.20;;;;;;4994716;28;20468;-62
2023/10/14 01:06:06;;;;;;;16.57;5.90;;;22.10;91.20;;;;;;5000694;28;20509;-60
2023/10/14 01:08:38;;;;;;;7.53;5.33;;;22.10;91.00;;;;;;4993224;28;20477;-63
2023/10/14 01:11:07;;;;;;;12.63;5.73;;;22.20;91.00;;;;;;5005055;28;20565;-62
2023/10/14 01:13:34;;;;;;;13.33;4.37;;;;;;;;;;4998413;28;21071;-61
2023/10/14 01:16:08;;;;;;;39.50;7.90;;;;;;;;;;5003386;28;20992;-60
2023/10/14 01:18:38;;;;;;;10.47;6.67;;;22.20;90.70;;;;;;5005389;28;21239;-61
2023/10/14 01:21:07;;;;;;;11.27;6.20;;;22.10;90.80;;;;;;4999288;28;20918;-61
2023/10/14 01:23:37;;;;;;;13.40;5.50;;;22.20;90.70;;;;;;5002362;28;20484;-63
2023/10/14 01:26:05;;;;;;;9.83;6.23;;;22.20;90.90;;;;;;5014741;28;21049;-61
2023/10/14 01:28:33;;;;;;;11.17;7.00;;;22.10;90.80;;;;;;5013542;28;20521;-62
2023/10/14 01:31:31;;;;;;;19.13;6.93;;;22.10;90.90;;;;;;5034459;28;20484;-62
2023/10/14 01:33:58;;;;;;;22.70;6.07;;;22.10;91.00;;;;;;5021882;28;20591;-61
2023/10/14 01:36:32;;;;;;;46.10;10.27;;;22.10;91.10;;;;;;5014729;28;20864;-63
2023/10/14 01:39:04;;;;;;;19.63;6.03;;;22.10;91.30;;;;;;5012424;28;20574;-62
2023/10/14 01:41:34;;;;;;;13.70;7.80;;;22.00;91.20;;;;;;5012400;28;20501;-60
2023/10/14 01:44:05;;;;;;;10.87;6.47;;;22.10;91.20;;;;;;5016030;28;20487;-62
2023/10/14 01:46:34;;;;;;;12.37;7.90;;;22.00;91.30;;;;;;5017911;28;20560;-61
2023/10/14 01:49:10;;;;;;;14.53;6.10;;;22.00;91.40;;;;;;5022744;28;21000;-61
2023/10/14 01:51:37;;;;;;;17.20;6.27;;;22.10;91.20;;;;;;5019293;28;20488;-60
2023/10/14 01:54:07;;;;;;;10.80;6.17;;;22.10;91.10;;;;;;5018243;28;20488;-62
2023/10/14 01:56:34;;;;;;;15.37;6.07;;;22.10;91.10;;;;;;5015631;28;20460;-62
2023/10/14 01:59:02;;;;;;;19.63;7.00;;;22.10;90.90;;;;;;5014476;28;20839;-60
2023/10/14 02:01:34;;;;;;;10.20;5.80;;;22.00;90.70;;;;;;5018086;28;20665;-63
2023/10/14 02:04:02;;;;;;;26.77;7.40;;;22.10;90.90;;;;;;4997374;28;20471;-60
2023/10/14 02:06:30;;;;;;;8.80;4.23;;;22.10;90.60;;;;;;5014308;28;20483;-62
2023/10/14 02:09:00;;;;;;;20.53;6.93;;;22.10;90.50;;;;;;5027813;28;20591;-61
2023/10/14 02:11:34;;;;;;;10.07;5.10;;;22.20;90.50;;;;;;5020282;28;20667;-61
2023/10/14 02:14:06;;;;;;;11.03;5.30;;;22.20;90.50;;;;;;5018566;28;20471;-61
2023/10/14 02:16:40;;;;;;;10.07;5.63;;;22.30;90.40;;;;;;5013076;28;20480;-66
2023/10/14 02:19:18;;;;;;;25.43;7.17;;;22.30;90.40;;;;;;5025823;28;20500;-66
2023/10/14 02:21:57;;;;;;;10.10;5.30;;;22.20;90.60;;;;;;5015301;28;20911;-66
2023/10/14 02:24:25;;;;;;;10.83;6.70;;;22.00;90.90;;;;;;5000326;28;20479;-68
2023/10/14 02:26:53;;;;;;;14.90;7.20;;;21.80;92.20;;;;;;5025950;28;20614;-67
2023/10/14 02:29:22;;;;;;;23.57;7.27;;;21.50;92.60;;;;;;5026655;28;20476;-66
2023/10/14 02:31:49;;;;;;;11.87;8.30;;;21.10;93.10;;;;;;4999353;28;21324;-65
2023/10/14 02:34:17;;;;;;;6.63;6.03;;;21.20;93.40;;;;;;5014203;28;20970;-66
2023/10/14 02:36:49;;;;;;;9.63;5.90;;;21.00;93.30;;;;;;5013925;28;20485;-66
2023/10/14 02:39:16;;;;;;;8.83;3.57;;;20.90;93.40;;;;;;5015978;28;20859;-68
2023/10/14 02:41:45;;;;;;;14.90;5.10;;;20.80;93.30;;;;;;5003503;28;20485;-66
2023/10/14 02:44:28;;;;;;;10.90;4.73;;;20.70;93.10;;;;;;5027026;28;20846;-65
2023/10/14 02:47:01;;;;;;;11.07;4.97;;;20.70;92.90;;;;;;4999378;28;20567;-66
2023/10/14 02:49:34;;;;;;;6.73;3.60;;;20.50;93.20;;;;;;5015172;28;20875;-66
2023/10/14 02:52:08;;;;;;;21.97;5.20;;;;;;;;;;5006756;28;20846;-66
2023/10/14 02:54:35;;;;;;;5.60;4.07;;;20.30;94.20;;;;;;5019354;28;20478;-64
2023/10/14 02:57:12;;;;;;;19.03;4.93;;;20.30;94.50;;;;;;5019140;28;21054;-66
2023/10/14 02:59:44;;;;;;;12.43;5.73;;;20.20;94.90;;;;;;5008543;28;20485;-66
2023/10/14 03:02:15;;;;;;;12.90;4.87;;;20.00;95.50;;;;;;5029300;28;20480;-64
2023/10/14 03:04:48;;;;;;;4.33;2.70;;;20.00;95.80;;;;;;5002912;28;20708;-68
2023/10/14 03:07:23;;;;;;;7.97;4.50;;;19.90;96.20;;;;;;5026364;28;21060;-64
2023/10/14 03:09:50;;;;;;;8.07;4.07;;;19.80;96.40;;;;;;5015778;28;20480;-66
2023/10/14 03:12:21;;;;;;;8.93;5.20;;;19.70;96.70;;;;;;5020442;28;20488;-66
2023/10/14 03:14:51;;;;;;;9.77;3.90;;;19.60;96.70;;;;;;5012066;28;21256;-66
2023/10/14 03:17:24;;;;;;;6.17;3.10;;;19.50;96.70;;;;;;5018528;28;20938;-66
2023/10/14 03:19:53;;;;;;;14.07;3.90;;;19.50;96.90;;;;;;5009605;28;20817;-64
2023/10/14 03:22:23;;;;;;;6.27;3.00;;;19.30;96.90;;;;;;5014726;28;20492;-65
2023/10/14 03:24:50;;;;;;;4.53;2.97;;;19.40;97.10;;;;;;5015410;28;21005;-65
2023/10/14 03:27:17;;;;;;;18.73;5.50;;;19.20;97.20;;;;;;5017733;28;20493;-65
2023/10/14 03:29:50;;;;;;;6.90;4.63;;;19.20;97.20;;;;;;5018637;28;20484;-67
2023/10/14 03:32:18;;;;;;;5.67;3.60;;;19.30;97.20;;;;;;5016485;28;20531;-64
2023/10/14 03:34:47;;;;;;;15.73;4.93;;;;;;;;;;5013618;28;20476;-65
2023/10/14 03:37:25;;;;;;;6.20;3.73;;;19.40;97.10;;;;;;5003560;28;21003;-65
2023/10/14 03:40:34;;;;;;;5.90;4.60;;;19.40;97.10;;;;;;5013697;28;20552;-64
2023/10/14 03:42:51;;;;;;;16.00;5.33;;;19.20;97.00;;;;;;5023665;28;21093;-67
2023/10/14 03:45:21;;;;;;;12.33;3.90;;;19.40;97.00;;;;;;5014601;28;20834;-65
2023/10/14 03:47:52;;;;;;;12.80;3.30;;;19.40;97.00;;;;;;5017903;28;21055;-64
2023/10/14 03:50:23;;;;;;;5.87;2.43;;;19.20;97.00;;;;;;5009831;28;20497;-66
2023/10/14 03:52:53;;;;;;;6.33;3.87;;;19.20;97.10;;;;;;5023283;28;20898;-65
2023/10/14 03:55:24;;;;;;;6.47;3.60;;;19.20;97.20;;;;;;5012744;28;20491;-65
2023/10/14 03:58:03;;;;;;;5.83;3.10;;;19.20;97.20;;;;;;5016446;28;20488;-64
2023/10/14 04:00:36;;;;;;;4.27;1.90;;;19.10;97.10;;;;;;5016971;28;20476;-64
2023/10/14 04:03:12;;;;;;;11.30;3.10;;;19.10;97.10;;;;;;5005479;28;20484;-66
2023/10/14 04:05:41;;;;;;;5.37;2.90;;;19.10;97.20;;;;;;5014577;28;20999;-64
2023/10/14 04:08:09;;;;;;;17.63;2.90;;;19.10;97.10;;;;;;5021879;28;20468;-64
2023/10/14 04:10:44;;;;;;;22.63;3.83;;;19.00;97.20;;;;;;5014397;28;20582;-63
2023/10/14 04:13:13;;;;;;;5.60;3.03;;;19.10;97.20;;;;;;5013494;28;20953;-65
2023/10/14 04:15:48;;;;;;;7.33;3.57;;;19.10;97.30;;;;;;5000734;28;20476;-66
2023/10/14 04:18:24;;;;;;;5.03;3.33;;;19.00;97.30;;;;;;5020162;28;20513;-65
2023/10/14 04:21:10;;;;;;;5.40;3.07;;;19.10;97.40;;;;;;5004783;28;20563;-64
2023/10/14 04:23:42;;;;;;;6.00;3.20;;;19.10;97.40;;;;;;5003200;28;20542;-65
2023/10/14 04:26:11;;;;;;;6.43;2.87;;;19.00;97.50;;;;;;5010058;28;21035;-60
2023/10/14 04:28:53;;;;;;;19.03;3.70;;;19.10;97.50;;;;;;5038195;28;20473;-62
2023/10/14 04:31:26;;;;;;;6.70;2.60;;;19.20;97.60;;;;;;5016609;28;20492;-61
2023/10/14 04:33:55;;;;;;;9.43;3.53;;;19.10;97.60;;;;;;5020390;28;20477;-60
2023/10/14 04:39:26;;;;;;;4.97;2.57;;;19.00;98.10;;;;;;5081623;27;20582;-60
2023/10/14 04:44:54;;;;;;;6.50;2.80;;;19.20;98.00;;;;;;5061598;27;20503;-61
2023/10/14 04:47:27;;;;;;;11.37;2.77;;;19.00;98.10;;;;;;5100579;27;21314;-61
2023/10/14 04:49:54;;;;;;;6.57;2.47;;;19.20;98.10;;;;;;5109461;27;20460;-61
2023/10/14 04:52:26;;;;;;;18.07;3.00;;;19.20;98.30;;;;;;5114861;27;21056;-60
2023/10/14 04:54:54;;;;;;;2.60;2.03;;;19.10;98.20;;;;;;5114576;27;20477;-61
2023/10/14 04:57:23;;;;;;;15.03;3.00;;;19.20;98.30;;;;;;5096092;27;20488;-62
2023/10/14 04:59:53;;;;;;;3.20;1.97;;;19.10;98.90;;;;;;5097098;27;20473;-60
2023/10/14 05:02:30;;;;;;;3.43;1.80;;;19.20;99.20;;;;;;5090180;27;20505;-61
2023/10/14 05:04:59;;;;;;;4.23;2.27;;;19.00;99.40;;;;;;5109946;27;20463;-60
2023/10/14 05:07:29;;;;;;;9.87;2.10;;;19.00;99.20;;;;;;5087519;28;20497;-60
2023/10/14 05:09:58;;;;;;;22.47;2.90;;;19.00;99.10;;;;;;5110710;27;20473;-59
2023/10/14 05:12:26;;;;;;;4.27;2.50;;;19.00;99.40;;;;;;5112360;27;20907;-61
2023/10/14 05:14:55;;;;;;;6.77;2.03;;;19.00;99.40;;;;;;5115094;27;20472;-62
2023/10/14 05:17:26;;;;;;;6.83;2.07;;;18.90;99.50;;;;;;5116484;27;20619;-62
2023/10/14 05:19:59;;;;;;;5.10;1.50;;;18.90;99.60;;;;;;5131304;27;20525;-61
2023/10/14 05:23:30;;;;;;;8.27;2.17;;;18.90;99.60;;;;;;5113440;27;20519;-62
2023/10/14 05:25:59;;;;;;;8.60;1.83;;;18.80;99.70;;;;;;5114342;27;20484;-59
2023/10/14 05:28:31;;;;;;;7.37;2.00;;;18.90;99.70;;;;;;5105933;27;21287;-61
2023/10/14 05:31:00;;;;;;;5.80;1.50;;;18.80;99.90;;;;;;5113370;27;20533;-61
2023/10/14 05:33:28;;;;;;;1.80;1.00;;;18.90;99.90;;;;;;5119580;27;20479;-61
2023/10/14 05:35:57;;;;;;;2.90;1.30;;;18.90;99.90;;;;;;5117289;27;20476;-60
2023/10/14 05:38:24;;;;;;;7.50;1.73;;;18.90;99.90;;;;;;5114942;27;20811;-61
2023/10/14 05:40:55;;;;;;;5.70;1.97;;;18.90;99.90;;;;;;5122399;27;20834;-61
2023/10/14 05:43:24;;;;;;;4.53;1.97;;;18.90;99.90;;;;;;5111422;27;20537;-61
2023/10/14 05:45:52;;;;;;;7.20;1.57;;;18.90;99.90;;;;;;5117405;27;21252;-61
2023/10/14 05:48:26;;;;;;;8.40;1.47;;;18.90;99.90;;;;;;5121080;27;20478;-65
2023/10/14 05:50:56;;;;;;;2.60;1.20;;;18.70;99.90;;;;;;5100708;27;20470;-65
2023/10/14 05:53:24;;;;;;;5.50;1.33;;;18.70;99.90;;;;;;5118046;27;20552;-67
2023/10/14 05:55:59;;;;;;;10.53;1.77;;;18.70;99.90;;;;;;5089170;27;20483;-66
2023/10/14 05:58:28;;;;;;;9.40;1.57;;;18.60;99.90;;;;;;5114625;27;20472;-66
2023/10/14 06:00:55;;;;;;;3.77;1.10;;;18.60;99.90;;;;;;5108631;27;20567;-64
2023/10/14 06:03:22;;;;;;;2.00;0.83;;;18.30;99.90;;;;;;5109705;27;20536;-65
2023/10/14 06:05:49;;;;;;;1.77;0.70;;;18.20;99.90;;;;;;5108387;27;20487;-64
2023/10/14 06:08:17;;;;;;;15.13;2.10;;;18.10;99.90;;;;;;5110448;27;20478;-63
2023/10/14 06:10:44;;;;;;;4.23;0.87;;;17.90;99.90;;;;;;5115790;27;20480;-64
2023/10/14 06:13:12;;;;;;;2.80;0.83;;;17.80;99.90;;;;;;5089496;27;20484;-65
2023/10/14 06:15:41;;;;;;;3.00;0.80;;;17.80;99.90;;;;;;5113082;27;20481;-65
2023/10/14 06:18:09;;;;;;;1.70;0.60;;;17.70;99.90;;;;;;5094505;27;21014;-65
2023/10/14 06:20:36;;;;;;;1.67;0.70;;;17.60;99.90;;;;;;5102996;27;20477;-64
2023/10/14 06:23:03;;;;;;;1.80;0.70;;;17.70;99.90;;;;;;5097650;28;21202;-64
2023/10/14 06:25:30;;;;;;;20.07;1.70;;;;;;;;;;5103932;27;20476;-65
2023/10/14 06:27:58;;;;;;;5.33;1.30;;;17.60;99.90;;;;;;5113317;27;20556;-65
2023/10/14 06:30:25;;;;;;;9.20;1.37;;;17.60;99.90;;;;;;5060223;28;21102;-64
2023/10/14 06:32:58;;;;;;;7.53;0.90;;;;;;;;;;5092557;27;20483;-63
2023/10/14 06:35:26;;;;;;;1.60;0.60;;;17.60;99.90;;;;;;5077265;28;20485;-63
2023/10/14 06:37:54;;;;;;;2.13;0.90;;;17.70;99.90;;;;;;5065433;27;20477;-65
2023/10/14 06:40:21;;;;;;;9.63;1.17;;;17.70;99.90;;;;;;5086127;27;20469;-64
2023/10/14 06:42:50;;;;;;;3.03;1.00;;;17.70;99.90;;;;;;5088228;27;20856;-64
2023/10/14 06:45:21;;;;;;;1.97;0.90;;;17.70;99.90;;;;;;5096953;27;20483;-64
2023/10/14 06:47:50;;;;;;;11.03;1.23;;;17.80;99.90;;;;;;5108683;27;20726;-63
2023/10/14 06:50:23;;;;;;;1.70;0.60;;;17.90;99.90;;;;;;5093158;28;21078;-63
2023/10/14 06:52:53;;;;;;;1.70;0.80;;;17.90;99.90;;;;;;5087334;27;20484;-63
2023/10/14 06:55:22;;;;;;;5.83;0.87;;;17.80;99.90;;;;;;5096660;28;20509;-64
2023/10/14 06:57:53;;;;;;;1.70;0.70;;;17.80;99.90;;;;;;5093971;27;20483;-63
2023/10/14 07:00:29;;;;;;;9.03;1.10;;;17.90;99.90;;;;;;5086637;28;20892;-64
2023/10/14 07:02:57;;;;;;;1.77;1.10;;;17.90;99.90;;;;;;5107434;27;20480;-63
2023/10/14 07:05:25;;;;;;;2.33;0.90;;;17.90;99.90;;;;;;5092204;27;20970;-64
2023/10/14 07:07:52;;;;;;;7.23;1.07;;;18.00;99.90;;;;;;5110403;27;20488;-64
2023/10/14 07:10:27;;;;;;;2.97;0.70;;;17.90;99.90;;;;;;5107595;27;20826;-64
2023/10/14 07:12:54;;;;;;;2.20;1.20;;;;;;;;;;5062750;28;20564;-64
2023/10/14 07:15:22;;;;;;;1.60;0.67;;;17.90;99.90;;;;;;5095953;27;20918;-64
2023/10/14 07:17:49;;;;;;;1.80;0.80;;;;;;;;;;5102406;27;20507;-64
2023/10/14 07:20:16;;;;;;;1.70;0.70;;;17.90;99.90;;;;;;5094954;28;21124;-63
2023/10/14 07:22:44;;;;;;;14.93;1.53;;;17.90;99.90;;;;;;5110401;27;20480;-63
2023/10/14 07:25:11;;;;;;;1.80;0.80;;;17.90;99.90;;;;;;5109938;27;20477;-64
2023/10/14 07:27:39;;;;;;;9.33;1.30;;;17.90;99.90;;;;;;5106783;27;20847;-64
2023/10/14 07:30:15;;;;;;;1.70;0.70;;;18.00;99.90;;;;;;5100888;27;20485;-64
2023/10/14 07:32:45;;;;;;;1.90;0.70;;;;;;;;;;5099982;27;20957;-63
2023/10/14 07:35:13;;;;;;;2.90;0.80;;;17.90;99.90;;;;;;5105712;27;20850;-63
2023/10/14 07:37:43;;;;;;;7.83;1.30;;;17.90;99.90;;;;;;5100819;27;20585;-63
2023/10/14 07:40:22;;;;;;;1.60;0.60;;;17.90;99.90;;;;;;5091788;28;20553;-63
2023/10/14 07:42:52;;;;;;;4.53;1.00;;;18.00;99.90;;;;;;5086499;27;20483;-63
2023/10/14 07:45:20;;;;;;;1.63;0.80;;;18.00;99.90;;;;;;5099368;27;20963;-63
2023/10/14 07:47:47;;;;;;;1.60;0.80;;;18.00;99.90;;;;;;5095294;27;20915;-63
2023/10/14 07:50:15;;;;;;;2.53;0.90;;;18.00;99.90;;;;;;5096113;27;21066;-63
2023/10/14 07:52:41;;;;;;;1.60;0.70;;;18.00;99.90;;;;;;5119449;27;20485;-63
2023/10/14 07:55:10;;;;;;;13.57;1.73;;;17.90;99.90;;;;;;5101817;27;20481;-63
2023/10/14 07:57:40;;;;;;;1.90;1.20;;;17.90;99.90;;;;;;5100766;27;20979;-63
2023/10/14 08:00:12;;;;;;;1.60;0.80;;;17.90;99.90;;;;;;5091500;28;20505;-63
2023/10/14 08:02:39;;;;;;;4.97;0.97;;;;;;;;;;5103929;27;20488;-63
2023/10/14 08:05:07;;;;;;;1.70;0.90;;;17.80;99.70;;;;;;5109484;27;20877;-63
2023/10/14 08:07:40;;;;;;;1.70;0.80;;;17.80;99.70;;;;;;5104110;27;20476;-61
2023/10/14 08:10:17;;;;;;;1.80;0.97;;;17.80;99.60;;;;;;5116210;27;20507;-61
2023/10/14 08:12:46;;;;;;;12.43;1.53;;;17.80;99.70;;;;;;5095095;27;20468;-62
2023/10/14 08:15:14;;;;;;;1.60;0.70;;;17.80;99.60;;;;;;5102686;27;20480;-62
2023/10/14 08:17:41;;;;;;;1.70;0.80;;;17.70;99.20;;;;;;5094772;27;20484;-63
2023/10/14 08:20:13;;;;;;;1.57;0.70;;;17.70;99.50;;;;;;5113429;27;20476;-63
2023/10/14 08:22:41;;;;;;;52.90;3.20;;;17.70;99.70;;;;;;5088595;27;20480;-63
2023/10/14 08:25:08;;;;;;;1.97;0.80;;;17.70;99.70;;;;;;5107192;27;20498;-64
2023/10/14 08:27:36;;;;;;;1.60;0.70;;;17.60;99.40;;;;;;5100486;27;20482;-62
2023/10/14 08:30:10;;;;;;;1.67;0.63;;;17.50;99.20;;;;;;5067052;28;20478;-62
2023/10/14 08:32:38;;;;;;;24.97;1.93;;;17.50;98.70;;;;;;5082198;28;20540;-61
2023/10/14 08:35:14;;;;;;;1.70;0.80;;;17.50;98.90;;;;;;5073177;28;20489;-61
2023/10/14 08:37:47;;;;;;;1.67;0.80;;;17.50;99.20;;;;;;5106032;27;20535;-61
2023/10/14 08:40:19;;;;;;;1.80;0.90;;;17.50;99.60;;;;;;5076522;28;20490;-61
2023/10/14 08:42:50;;;;;;;1.70;0.70;;;17.50;99.20;;;;;;5074628;28;20513;-61
2023/10/14 08:45:21;;;;;;;1.50;0.60;;;17.50;98.90;;;;;;5101207;27;20485;-61
2023/10/14 08:47:51;;;;;;;1.53;0.60;;;17.50;98.90;;;;;;5097539;27;21044;-62
2023/10/14 08:50:21;;;;;;;8.93;0.90;;;;;;;;;;5093875;28;20496;-62
2023/10/14 08:52:50;;;;;;;1.63;0.70;;;17.40;98.60;;;;;;5113702;27;20484;-62
2023/10/14 08:55:20;;;;;;;1.60;0.60;;;17.50;98.80;;;;;;5107398;27;20476;-61
2023/10/14 08:57:47;;;;;;;1.60;0.70;;;17.40;98.60;;;;;;5109845;27;20480;-63
2023/10/14 09:00:19;;;;;;;10.63;1.37;;;17.30;97.50;;;;;;5105392;27;20555;-64
2023/10/14 09:02:49;;;;;;;1.77;0.70;;;17.30;97.20;;;;;;5104199;27;21000;-64
2023/10/14 09:05:18;;;;;;;2.00;0.90;;;17.30;97.30;;;;;;5096766;27;20473;-63
2023/10/14 09:07:46;;;;;;;1.83;0.70;;;17.30;96.30;;;;;;5103492;27;21001;-60
2023/10/14 09:10:17;;;;;;;1.70;0.80;;;17.20;95.90;;;;;;5107996;27;20467;-61
2023/10/14 09:12:57;;;;;;;1.90;0.83;;;17.20;96.40;;;;;;5111798;27;20554;-61
2023/10/14 09:15:26;;;;;;;3.17;0.87;;;17.20;95.40;;;;;;5113278;27;20512;-61
2023/10/14 09:17:57;;;;;;;18.13;1.47;;;17.20;95.70;;;;;;5103339;27;21064;-64
2023/10/14 09:20:32;;;;;;;1.67;0.73;;;17.20;95.10;;;;;;5083919;28;20477;-65
2023/10/14 09:23:19;;;;;;;1.90;0.97;;;17.10;94.50;;;;;;5103167;27;21001;-63
2023/10/14 09:25:49;;;;;;;1.93;0.90;;;17.10;94.70;;;;;;5107707;27;20969;-63
2023/10/14 09:28:19;;;;;;;2.33;0.80;;;17.20;94.20;;;;;;5112228;27;20505;-63
2023/10/14 09:30:49;;;;;;;1.80;0.90;;;17.10;93.80;;;;;;5094240;27;20481;-63
2023/10/14 09:33:20;;;;;;;1.80;0.90;;;17.10;94.00;;;;;;5105164;27;20521;-63
2023/10/14 09:35:49;;;;;;;1.93;0.93;;;17.30;94.60;;;;;;5112166;27;20479;-63
2023/10/14 09:38:21;;;;;;;18.47;1.73;;;17.40;94.30;;;;;;5108732;27;20603;-63
2023/10/14 09:40:53;;;;;;;1.90;1.00;;;17.40;94.10;;;;;;5099562;27;21006;-63
2023/10/14 09:43:23;;;;;;;2.30;1.00;;;17.50;94.10;;;;;;5123723;27;21366;-63
2023/10/14 09:45:55;;;;;;;8.90;1.40;;;17.60;94.40;;;;;;5092273;27;20491;-63
2023/10/14 09:48:27;;;;;;;2.60;1.30;;;17.70;94.40;;;;;;5093194;27;20492;-63
2023/10/14 09:51:00;;;;;;;2.20;1.27;;;17.90;94.60;;;;;;5099147;27;20485;-64
2023/10/14 09:53:27;;;;;;;3.57;1.67;;;17.90;94.00;;;;;;5113069;27;20539;-63
2023/10/14 09:55:56;;;;;;;2.07;1.03;;;18.10;94.40;;;;;;5105441;27;20476;-63
2023/10/14 09:58:30;;;;;;;11.57;1.97;;;18.40;94.40;;;;;;5103184;27;20563;-63
2023/10/14 10:00:58;;;;;;;1.97;1.20;;;18.70;93.10;;;;;;5108289;27;20472;-64
2023/10/14 10:03:27;;;;;;;4.47;1.67;;;18.70;91.80;;;;;;5096647;27;21030;-64
2023/10/14 10:06:07;;;;;;;27.77;2.80;;;19.00;92.50;;;;;;5101423;27;20472;-64
2023/10/14 10:09:00;;;;;;;5.40;1.80;;;19.20;92.70;;;;;;5100897;27;20856;-64
2023/10/14 10:11:29;;;;;;;2.33;1.47;;;19.30;86.30;;;;;;5100809;27;20476;-63
2023/10/14 10:13:59;;;;;;;5.03;1.40;;;;;;;;;;5096850;27;20477;-64
2023/10/14 10:16:30;;;;;;;4.83;1.40;;;19.10;84.50;;;;;;5109232;27;20577;-64
2023/10/14 10:19:00;;;;;;;4.50;1.43;;;19.10;84.50;;;;;;5114377;27;20480;-64
2023/10/14 10:21:30;;;;;;;3.27;1.50;;;19.00;83.30;;;;;;5092695;27;20987;-64
2023/10/14 10:24:17;;;;;;;5.40;1.70;;;19.00;84.50;;;;;;5115327;27;20500;-64
2023/10/14 10:27:06;;;;;;;22.17;2.30;;;18.70;77.90;;;;;;5103347;27;20480;-65
2023/10/14 10:29:33;;;;;;;3.03;1.30;;;18.60;75.30;;;;;;5086135;28;20476;-65
2023/10/14 10:32:07;;;;;;;1.80;0.70;;;18.60;78.00;;;;;;5090183;28;20481;-65
2023/10/14 10:34:55;;;;;;;2.53;0.77;;;18.50;77.10;;;;;;5095166;27;20508;-64
2023/10/14 10:37:27;;;;;;;2.80;0.97;;;18.60;78.20;;;;;;5071779;28;20802;-64
2023/10/14 10:39:54;;;;;;;2.83;1.13;;;18.50;76.80;;;;;;5096476;28;20480;-65
2023/10/14 10:42:22;;;;;;;3.63;1.23;;;18.60;80.70;;;;;;5104945;27;20480;-66
2023/10/14 10:44:49;;;;;;;9.83;1.30;;;18.70;78.70;;;;;;5110225;27;20480;-64
2023/10/14 10:47:16;;;;;;;16.23;1.90;;;18.70;77.70;;;;;;5114616;27;20472;-62
2023/10/14 10:49:58;;;;;;;3.60;1.30;;;18.80;78.00;;;;;;5096055;28;20469;-62
2023/10/14 10:52:27;;;;;;;4.20;1.57;;;18.70;78.80;;;;;;5071024;27;20500;-62
2023/10/14 10:54:55;;;;;;;27.63;3.20;;;18.70;80.80;;;;;;5082601;27;20478;-61
2023/10/14 10:57:22;;;;;;;8.70;1.73;;;18.60;78.90;;;;;;5095434;28;20477;-61
2023/10/14 10:59:49;;;;;;;5.50;1.77;;;18.70;81.00;;;;;;5096941;28;20469;-62
2023/10/14 11:02:18;;;;;;;21.70;2.33;;;18.90;82.40;;;;;;5105754;27;20475;-61
2023/10/14 11:04:48;;;;;;;33.57;3.50;;;19.20;81.30;;;;;;5117976;27;21030;-62
2023/10/14 11:07:19;;;;;;;5.07;1.90;;;19.20;80.00;;;;;;5087158;27;20484;-62
2023/10/14 11:09:49;;;;;;;2.60;0.90;;;;;;;;;;5102807;27;20832;-63
2023/10/14 11:12:18;;;;;;;3.23;1.40;;;19.70;81.20;;;;;;5097285;27;20464;-62
2023/10/14 11:14:45;;;;;;;54.63;3.57;;;20.20;81.50;;;;;;5091629;27;21057;-62
2023/10/14 11:17:13;;;;;;;2.97;1.53;;;20.50;80.70;;;;;;5098561;27;20476;-62
2023/10/14 11:19:40;;;;;;;4.53;1.10;;;20.80;81.80;;;;;;5095238;27;20492;-62
2023/10/14 11:22:07;;;;;;;3.97;1.80;;;20.80;77.90;;;;;;5093937;27;20491;-62
2023/10/14 11:24:36;;;;;;;7.70;2.10;;;20.40;76.10;;;;;;5122632;27;20487;-63
2023/10/14 11:27:06;;;;;;;3.53;1.23;;;20.10;76.50;;;;;;5088339;27;20483;-63
2023/10/14 11:29:34;;;;;;;3.90;1.63;;;20.20;79.20;;;;;;5123453;27;20978;-62
2023/10/14 11:32:02;;;;;;;10.83;1.60;;;19.90;76.30;;;;;;5109947;27;20519;-61
2023/10/14 11:34:34;;;;;;;14.53;2.10;;;20.00;80.10;;;;;;5099569;27;20752;-62
2023/10/14 11:37:01;;;;;;;9.10;1.77;;;20.00;77.40;;;;;;5104388;27;20468;-62
2023/10/14 11:39:32;;;;;;;2.60;1.07;;;19.80;73.90;;;;;;5110859;27;21001;-61
2023/10/14 11:42:03;;;;;;;3.63;1.40;;;19.90;76.50;;;;;;5097201;27;20876;-62
2023/10/14 11:44:30;;;;;;;15.77;2.50;;;19.80;76.10;;;;;;5082655;27;21119;-62
2023/10/14 11:46:59;;;;;;;3.50;2.97;;;19.80;74.90;;;;;;5076519;28;20488;-62
2023/10/14 11:49:27;;;;;;;10.70;1.77;;;19.90;76.00;;;;;;5077152;28;20850;-62
2023/10/14 11:51:54;;;;;;;2.90;1.60;;;19.90;74.50;;;;;;5063692;27;20859;-62
2023/10/14 11:54:24;;;;;;;9.93;1.73;;;19.90;74.90;;;;;;5082310;27;20493;-62
2023/10/14 11:56:51;;;;;;;28.67;2.70;;;19.80;73.30;;;;;;5074483;27;20473;-62
2023/10/14 11:59:19;;;;;;;8.70;1.77;;;19.80;73.40;;;;;;5095407;27;20473;-61
2023/10/14 12:01:47;;;;;;;3.83;1.40;;;19.70;74.30;;;;;;5066216;27;20465;-62
2023/10/14 12:04:14;;;;;;;6.73;1.27;;;19.40;73.90;;;;;;5097071;27;20476;-63
2023/10/14 12:06:42;;;;;;;4.03;1.10;;;19.20;73.30;;;;;;5097355;27;20477;-65
2023/10/14 12:09:10;;;;;;;4.73;1.40;;;19.20;74.60;;;;;;5093779;27;20826;-65
2023/10/14 12:11:41;;;;;;;3.90;1.80;;;19.20;75.40;;;;;;5093775;28;20476;-65
2023/10/14 12:14:10;;;;;;;6.90;1.87;;;19.10;75.70;;;;;;5094320;28;20574;-66
2023/10/14 12:16:40;;;;;;;45.10;3.97;;;;;;;;;;5092162;27;21006;-65
2023/10/14 12:19:11;;;;;;;2.57;1.67;;;18.90;75.80;;;;;;5113511;27;20576;-66
2023/10/14 12:21:38;;;;;;;6.30;1.97;;;18.70;76.10;;;;;;5098699;28;20465;-66
2023/10/14 12:24:09;;;;;;;16.23;2.40;;;18.50;76.00;;;;;;5100834;27;20873;-65
2023/10/14 12:26:43;;;;;;;9.53;1.50;;;18.50;75.30;;;;;;5101152;27;20469;-66
2023/10/14 12:29:11;;;;;;;4.57;1.30;;;18.30;73.90;;;;;;5098930;27;20480;-65
2023/10/14 12:31:43;;;;;;;9.17;1.20;;;18.30;76.10;;;;;;5099072;27;20469;-66
2023/10/14 12:34:11;;;;;;;6.87;1.77;;;18.20;74.90;;;;;;5105666;27;20488;-66
2023/10/14 12:36:40;;;;;;;4.47;1.57;;;18.20;75.10;;;;;;5098443;27;20952;-65
2023/10/14 12:39:18;;;;;;;6.13;1.43;;;18.00;74.80;;;;;;5105402;27;20480;-65
2023/10/14 12:41:47;;;;;;;6.70;1.37;;;18.00;75.90;;;;;;5095209;27;20464;-65
2023/10/14 12:44:14;;;;;;;51.67;4.40;;;17.90;77.30;;;;;;5093050;27;20476;-66
2023/10/14 12:46:45;;;;;;;2.30;1.27;;;17.90;77.40;;;;;;5109588;27;20564;-64
2023/10/14 12:49:17;;;;;;;2.43;1.80;;;17.80;76.60;;;;;;5099118;28;20469;-65
2023/10/14 12:51:44;;;;;;;9.43;1.87;;;17.80;77.40;;;;;;5090227;27;20998;-67
2023/10/14 12:54:16;;;;;;;28.87;2.57;;;17.70;76.80;;;;;;5105037;27;20477;-66
2023/10/14 12:56:43;;;;;;;3.10;2.00;;;17.90;78.10;;;;;;5093715;27;20468;-67
2023/10/14 12:59:13;;;;;;;4.17;1.10;;;;;;;;;;5102873;27;20859;-66
2023/10/14 13:01:46;;;;;;;4.33;1.30;;;17.90;76.50;;;;;;5094931;27;20492;-66
2023/10/14 13:04:16;;;;;;;3.23;1.30;;;17.90;75.90;;;;;;5098476;27;20507;-66
2023/10/14 13:06:44;;;;;;;3.63;1.20;;;17.80;75.80;;;;;;5097783;27;20491;-66
2023/10/14 13:09:12;;;;;;;2.97;1.43;;;17.80;77.50;;;;;;5098200;27;20990;-66
2023/10/14 13:11:43;;;;;;;18.67;2.33;;;17.70;76.40;;;;;;5092364;27;20995;-68